sensor_id;sensor_type;location;lat;lon;timestamp;P1;durP1;ratioP1;P2;durP2;ratioP2
78197;SDS011;67472;51.554;7.812;2023-02-28T00:00:11;6.43;;;4.75;;
78197;SDS011;67472;51.554;7.812;2023-02-28T00:02:56;5.68;;;4.95;;
78197;SDS011;67472;51.554;7.812;2023-02-28T00:05:41;8.05;;;5.22;;
78197;SDS011;67472;51.554;7.812;2023-02-28T00:08:25;10.05;;;5.65;;
78197;SDS011;67472;51.554;7.812;2023-02-28T00:11:12;10.07;;;5.90;;
78197;SDS011;67472;51.554;7.812;2023-02-28T00:13:58;6.35;;;4.72;;
78197;SDS011;67472;51.554;7.812;2023-02-28T00:16:42;5.72;;;4.85;;
78197;SDS011;67472;51.554;7.812;2023-02-28T00:19:27;5.50;;;4.88;;
78197;SDS011;67472;51.554;7.812;2023-02-28T00:22:11;9.00;;;4.70;;
78197;SDS011;67472;51.554;7.812;2023-02-28T00:24:55;7.15;;;5.43;;
78197;SDS011;67472;51.554;7.812;2023-02-28T00:27:40;7.35;;;4.68;;
78197;SDS011;67472;51.554;7.812;2023-02-28T00:30:25;10.13;;;4.45;;
78197;SDS011;67472;51.554;7.812;2023-02-28T00:33:09;5.03;;;3.60;;
78197;SDS011;67472;51.554;7.812;2023-02-28T00:36:01;7.82;;;4.45;;
78197;SDS011;67472;51.554;7.812;2023-02-28T00:38:49;6.32;;;4.63;;
78197;SDS011;67472;51.554;7.812;2023-02-28T00:41:34;12.65;;;4.75;;
78197;SDS011;67472;51.554;7.812;2023-02-28T00:44:18;14.57;;;6.22;;
78197;SDS011;67472;51.554;7.812;2023-02-28T00:47:05;9.02;;;5.50;;
78197;SDS011;67472;51.554;7.812;2023-02-28T00:49:50;9.63;;;6.43;;
78197;SDS011;67472;51.554;7.812;2023-02-28T00:52:35;11.68;;;6.63;;
78197;SDS011;67472;51.554;7.812;2023-02-28T00:55:19;9.35;;;5.93;;
78197;SDS011;67472;51.554;7.812;2023-02-28T00:58:03;10.07;;;5.97;;
78197;SDS011;67472;51.554;7.812;2023-02-28T01:00:48;9.57;;;6.25;;
78197;SDS011;67472;51.554;7.812;2023-02-28T01:03:32;13.98;;;7.53;;
78197;SDS011;67472;51.554;7.812;2023-02-28T01:06:17;9.90;;;5.90;;
78197;SDS011;67472;51.554;7.812;2023-02-28T01:09:02;10.95;;;6.30;;
78197;SDS011;67472;51.554;7.812;2023-02-28T01:11:48;6.70;;;5.07;;
78197;SDS011;67472;51.554;7.812;2023-02-28T01:14:32;5.97;;;5.13;;
78197;SDS011;67472;51.554;7.812;2023-02-28T01:17:18;6.78;;;4.85;;
78197;SDS011;67472;51.554;7.812;2023-02-28T01:20:02;6.30;;;4.68;;
78197;SDS011;67472;51.554;7.812;2023-02-28T01:22:47;6.43;;;4.90;;
78197;SDS011;67472;51.554;7.812;2023-02-28T01:25:33;6.38;;;4.72;;
78197;SDS011;67472;51.554;7.812;2023-02-28T01:28:21;6.80;;;4.57;;
78197;SDS011;67472;51.554;7.812;2023-02-28T01:31:05;7.47;;;4.57;;
78197;SDS011;67472;51.554;7.812;2023-02-28T01:33:50;8.15;;;4.93;;
78197;SDS011;67472;51.554;7.812;2023-02-28T01:36:34;10.10;;;4.72;;
78197;SDS011;67472;51.554;7.812;2023-02-28T01:39:20;7.20;;;4.72;;
78197;SDS011;67472;51.554;7.812;2023-02-28T01:42:04;10.02;;;5.43;;
78197;SDS011;67472;51.554;7.812;2023-02-28T01:48:05;8.00;;;5.60;;
78197;SDS011;67472;51.554;7.812;2023-02-28T01:50:52;8.18;;;5.65;;
78197;SDS011;67472;51.554;7.812;2023-02-28T01:53:42;6.32;;;4.50;;
78197;SDS011;67472;51.554;7.812;2023-02-28T01:56:32;7.82;;;5.35;;
78197;SDS011;67472;51.554;7.812;2023-02-28T01:59:30;7.57;;;5.07;;
78197;SDS011;67472;51.554;7.812;2023-02-28T02:02:20;11.48;;;4.80;;
78197;SDS011;67472;51.554;7.812;2023-02-28T02:05:07;6.07;;;4.30;;
78197;SDS011;67472;51.554;7.812;2023-02-28T02:08:01;7.63;;;5.00;;
78197;SDS011;67472;51.554;7.812;2023-02-28T02:10:53;6.82;;;5.28;;
78197;SDS011;67472;51.554;7.812;2023-02-28T02:29:14;7.97;;;4.82;;
78197;SDS011;67472;51.554;7.812;2023-02-28T02:35:52;6.32;;;5.32;;
78197;SDS011;67472;51.554;7.812;2023-02-28T02:44:31;7.55;;;4.80;;
78197;SDS011;67472;51.554;7.812;2023-02-28T02:47:24;7.03;;;4.95;;
78197;SDS011;67472;51.554;7.812;2023-02-28T02:50:13;7.05;;;4.60;;
78197;SDS011;67472;51.554;7.812;2023-02-28T02:53:03;5.80;;;4.45;;
78197;SDS011;67472;51.554;7.812;2023-02-28T02:55:51;6.53;;;4.63;;
78197;SDS011;67472;51.554;7.812;2023-02-28T02:58:40;6.03;;;4.47;;
78197;SDS011;67472;51.554;7.812;2023-02-28T03:01:27;11.98;;;5.00;;
78197;SDS011;67472;51.554;7.812;2023-02-28T03:04:18;5.00;;;4.18;;
78197;SDS011;67472;51.554;7.812;2023-02-28T03:07:05;6.38;;;4.65;;
78197;SDS011;67472;51.554;7.812;2023-02-28T03:09:51;9.40;;;6.07;;
78197;SDS011;67472;51.554;7.812;2023-02-28T03:12:45;8.25;;;4.50;;
78197;SDS011;67472;51.554;7.812;2023-02-28T03:15:41;8.32;;;5.00;;
78197;SDS011;67472;51.554;7.812;2023-02-28T03:24:54;10.77;;;5.15;;
78197;SDS011;67472;51.554;7.812;2023-02-28T03:28:00;6.15;;;4.65;;
78197;SDS011;67472;51.554;7.812;2023-02-28T03:30:51;7.00;;;5.28;;
78197;SDS011;67472;51.554;7.812;2023-02-28T03:33:42;8.30;;;4.90;;
78197;SDS011;67472;51.554;7.812;2023-02-28T03:36:39;8.32;;;4.88;;
78197;SDS011;67472;51.554;7.812;2023-02-28T03:39:37;8.43;;;5.03;;
78197;SDS011;67472;51.554;7.812;2023-02-28T03:42:29;6.35;;;4.85;;
78197;SDS011;67472;51.554;7.812;2023-02-28T03:45:21;7.57;;;4.95;;
78197;SDS011;67472;51.554;7.812;2023-02-28T03:51:04;8.57;;;5.65;;
78197;SDS011;67472;51.554;7.812;2023-02-28T03:53:53;10.05;;;5.60;;
78197;SDS011;67472;51.554;7.812;2023-02-28T03:59:50;7.30;;;5.07;;
78197;SDS011;67472;51.554;7.812;2023-02-28T04:02:40;5.15;;;4.60;;
78197;SDS011;67472;51.554;7.812;2023-02-28T04:05:25;7.07;;;4.40;;
78197;SDS011;67472;51.554;7.812;2023-02-28T04:08:10;6.95;;;5.18;;
78197;SDS011;67472;51.554;7.812;2023-02-28T04:11:00;6.82;;;5.20;;
78197;SDS011;67472;51.554;7.812;2023-02-28T04:13:50;5.40;;;4.28;;
78197;SDS011;67472;51.554;7.812;2023-02-28T04:16:36;6.75;;;4.90;;
78197;SDS011;67472;51.554;7.812;2023-02-28T04:19:22;6.38;;;4.47;;
78197;SDS011;67472;51.554;7.812;2023-02-28T04:22:07;6.03;;;4.93;;
78197;SDS011;67472;51.554;7.812;2023-02-28T04:24:52;6.47;;;4.88;;
78197;SDS011;67472;51.554;7.812;2023-02-28T04:27:38;7.10;;;4.93;;
78197;SDS011;67472;51.554;7.812;2023-02-28T04:30:22;5.10;;;4.57;;
78197;SDS011;67472;51.554;7.812;2023-02-28T04:33:07;5.97;;;5.15;;
78197;SDS011;67472;51.554;7.812;2023-02-28T04:36:02;6.65;;;5.35;;
78197;SDS011;67472;51.554;7.812;2023-02-28T04:38:49;8.32;;;5.65;;
78197;SDS011;67472;51.554;7.812;2023-02-28T04:41:34;6.70;;;4.72;;
78197;SDS011;67472;51.554;7.812;2023-02-28T04:44:18;6.65;;;5.38;;
78197;SDS011;67472;51.554;7.812;2023-02-28T04:47:03;8.30;;;5.60;;
78197;SDS011;67472;51.554;7.812;2023-02-28T04:49:47;7.07;;;5.25;;
78197;SDS011;67472;51.554;7.812;2023-02-28T04:52:32;10.60;;;5.30;;
78197;SDS011;67472;51.554;7.812;2023-02-28T04:55:16;7.72;;;5.32;;
78197;SDS011;67472;51.554;7.812;2023-02-28T04:58:00;9.77;;;5.18;;
78197;SDS011;67472;51.554;7.812;2023-02-28T05:00:45;6.80;;;4.82;;
78197;SDS011;67472;51.554;7.812;2023-02-28T05:03:29;6.32;;;5.45;;
78197;SDS011;67472;51.554;7.812;2023-02-28T05:06:14;8.82;;;5.45;;
78197;SDS011;67472;51.554;7.812;2023-02-28T05:08:59;9.95;;;6.10;;
78197;SDS011;67472;51.554;7.812;2023-02-28T05:11:43;8.90;;;5.50;;
78197;SDS011;67472;51.554;7.812;2023-02-28T05:14:28;8.13;;;5.57;;
78197;SDS011;67472;51.554;7.812;2023-02-28T05:17:12;9.93;;;5.95;;
78197;SDS011;67472;51.554;7.812;2023-02-28T05:19:57;9.63;;;5.45;;
78197;SDS011;67472;51.554;7.812;2023-02-28T05:22:41;8.23;;;5.45;;
78197;SDS011;67472;51.554;7.812;2023-02-28T05:25:26;9.10;;;5.18;;
78197;SDS011;67472;51.554;7.812;2023-02-28T05:28:10;11.40;;;6.50;;
78197;SDS011;67472;51.554;7.812;2023-02-28T05:30:55;8.23;;;6.05;;
78197;SDS011;67472;51.554;7.812;2023-02-28T05:33:39;8.63;;;5.93;;
78197;SDS011;67472;51.554;7.812;2023-02-28T05:36:24;9.77;;;6.38;;
78197;SDS011;67472;51.554;7.812;2023-02-28T05:39:08;9.18;;;5.85;;
78197;SDS011;67472;51.554;7.812;2023-02-28T05:41:56;9.27;;;6.15;;
78197;SDS011;67472;51.554;7.812;2023-02-28T05:44:40;10.50;;;5.65;;
78197;SDS011;67472;51.554;7.812;2023-02-28T05:47:26;7.40;;;6.15;;
78197;SDS011;67472;51.554;7.812;2023-02-28T05:50:10;7.38;;;5.63;;
78197;SDS011;67472;51.554;7.812;2023-02-28T05:52:55;9.80;;;6.35;;
78197;SDS011;67472;51.554;7.812;2023-02-28T05:55:39;8.52;;;5.65;;
78197;SDS011;67472;51.554;7.812;2023-02-28T05:58:25;6.68;;;5.32;;
78197;SDS011;67472;51.554;7.812;2023-02-28T06:04:17;13.15;;;6.18;;
78197;SDS011;67472;51.554;7.812;2023-02-28T06:07:03;7.28;;;4.88;;
78197;SDS011;67472;51.554;7.812;2023-02-28T06:09:48;7.75;;;5.47;;
78197;SDS011;67472;51.554;7.812;2023-02-28T06:12:32;11.43;;;5.95;;
78197;SDS011;67472;51.554;7.812;2023-02-28T06:15:17;8.85;;;6.80;;
78197;SDS011;67472;51.554;7.812;2023-02-28T06:18:01;11.43;;;5.45;;
78197;SDS011;67472;51.554;7.812;2023-02-28T06:20:52;7.75;;;6.25;;
78197;SDS011;67472;51.554;7.812;2023-02-28T06:23:38;8.75;;;6.28;;
78197;SDS011;67472;51.554;7.812;2023-02-28T06:26:22;7.88;;;6.05;;
78197;SDS011;67472;51.554;7.812;2023-02-28T06:29:07;7.45;;;5.85;;
78197;SDS011;67472;51.554;7.812;2023-02-28T06:31:52;9.93;;;5.45;;
78197;SDS011;67472;51.554;7.812;2023-02-28T06:34:37;8.98;;;5.85;;
78197;SDS011;67472;51.554;7.812;2023-02-28T06:37:21;7.55;;;5.50;;
78197;SDS011;67472;51.554;7.812;2023-02-28T06:40:06;6.80;;;5.65;;
78197;SDS011;67472;51.554;7.812;2023-02-28T06:42:52;6.55;;;5.82;;
78197;SDS011;67472;51.554;7.812;2023-02-28T06:45:36;11.05;;;6.60;;
78197;SDS011;67472;51.554;7.812;2023-02-28T06:48:21;8.75;;;5.55;;
78197;SDS011;67472;51.554;7.812;2023-02-28T06:51:10;7.32;;;5.93;;
78197;SDS011;67472;51.554;7.812;2023-02-28T06:53:59;9.45;;;6.13;;
78197;SDS011;67472;51.554;7.812;2023-02-28T06:56:43;7.78;;;5.60;;
78197;SDS011;67472;51.554;7.812;2023-02-28T06:59:28;8.82;;;5.88;;
78197;SDS011;67472;51.554;7.812;2023-02-28T07:02:12;6.57;;;5.55;;
78197;SDS011;67472;51.554;7.812;2023-02-28T07:04:57;10.55;;;6.30;;
78197;SDS011;67472;51.554;7.812;2023-02-28T07:07:41;10.05;;;7.15;;
78197;SDS011;67472;51.554;7.812;2023-02-28T07:10:28;8.60;;;6.20;;
78197;SDS011;67472;51.554;7.812;2023-02-28T07:13:13;7.68;;;6.50;;
78197;SDS011;67472;51.554;7.812;2023-02-28T07:15:59;7.93;;;5.93;;
78197;SDS011;67472;51.554;7.812;2023-02-28T07:18:45;11.35;;;7.88;;
78197;SDS011;67472;51.554;7.812;2023-02-28T07:21:29;9.40;;;7.43;;
78197;SDS011;67472;51.554;7.812;2023-02-28T07:24:14;9.00;;;6.70;;
78197;SDS011;67472;51.554;7.812;2023-02-28T07:27:00;10.20;;;7.03;;
78197;SDS011;67472;51.554;7.812;2023-02-28T07:29:45;11.32;;;7.00;;
78197;SDS011;67472;51.554;7.812;2023-02-28T07:32:30;9.38;;;6.93;;
78197;SDS011;67472;51.554;7.812;2023-02-28T07:35:14;10.80;;;6.57;;
78197;SDS011;67472;51.554;7.812;2023-02-28T07:37:59;8.20;;;6.63;;
78197;SDS011;67472;51.554;7.812;2023-02-28T07:40:44;11.35;;;7.10;;
78197;SDS011;67472;51.554;7.812;2023-02-28T07:43:28;12.32;;;7.38;;
78197;SDS011;67472;51.554;7.812;2023-02-28T07:46:14;9.38;;;6.85;;
78197;SDS011;67472;51.554;7.812;2023-02-28T07:49:00;6.38;;;5.78;;
78197;SDS011;67472;51.554;7.812;2023-02-28T07:51:46;9.43;;;6.88;;
78197;SDS011;67472;51.554;7.812;2023-02-28T07:54:31;8.43;;;6.53;;
78197;SDS011;67472;51.554;7.812;2023-02-28T07:57:16;9.20;;;7.18;;
78197;SDS011;67472;51.554;7.812;2023-02-28T08:00:00;9.25;;;7.18;;
78197;SDS011;67472;51.554;7.812;2023-02-28T08:02:55;9.52;;;6.68;;
78197;SDS011;67472;51.554;7.812;2023-02-28T08:05:40;11.60;;;7.57;;
78197;SDS011;67472;51.554;7.812;2023-02-28T08:08:24;11.00;;;7.70;;
78197;SDS011;67472;51.554;7.812;2023-02-28T08:11:13;12.15;;;8.70;;
78197;SDS011;67472;51.554;7.812;2023-02-28T08:13:57;13.48;;;9.50;;
78197;SDS011;67472;51.554;7.812;2023-02-28T08:16:42;14.73;;;10.60;;
78197;SDS011;67472;51.554;7.812;2023-02-28T08:19:27;13.27;;;9.75;;
78197;SDS011;67472;51.554;7.812;2023-02-28T08:22:12;11.90;;;8.80;;
78197;SDS011;67472;51.554;7.812;2023-02-28T08:24:56;13.38;;;8.25;;
78197;SDS011;67472;51.554;7.812;2023-02-28T08:27:40;12.98;;;8.10;;
78197;SDS011;67472;51.554;7.812;2023-02-28T08:30:25;11.73;;;7.30;;
78197;SDS011;67472;51.554;7.812;2023-02-28T08:33:10;9.15;;;7.28;;
78197;SDS011;67472;51.554;7.812;2023-02-28T08:35:55;10.02;;;6.70;;
78197;SDS011;67472;51.554;7.812;2023-02-28T08:38:40;8.00;;;6.07;;
78197;SDS011;67472;51.554;7.812;2023-02-28T08:41:24;9.02;;;5.15;;
78197;SDS011;67472;51.554;7.812;2023-02-28T08:44:09;10.75;;;5.35;;
78197;SDS011;67472;51.554;7.812;2023-02-28T08:46:54;8.02;;;4.38;;
78197;SDS011;67472;51.554;7.812;2023-02-28T08:49:38;9.38;;;5.18;;
78197;SDS011;67472;51.554;7.812;2023-02-28T08:52:23;5.53;;;3.92;;
78197;SDS011;67472;51.554;7.812;2023-02-28T08:55:07;5.05;;;4.35;;
78197;SDS011;67472;51.554;7.812;2023-02-28T08:57:53;10.25;;;3.92;;
78197;SDS011;67472;51.554;7.812;2023-02-28T09:00:39;5.18;;;3.78;;
78197;SDS011;67472;51.554;7.812;2023-02-28T09:03:23;4.10;;;3.70;;
78197;SDS011;67472;51.554;7.812;2023-02-28T09:06:08;5.43;;;3.28;;
78197;SDS011;67472;51.554;7.812;2023-02-28T09:08:57;5.13;;;3.90;;
78197;SDS011;67472;51.554;7.812;2023-02-28T09:11:43;4.30;;;3.67;;
78197;SDS011;67472;51.554;7.812;2023-02-28T09:14:27;5.32;;;3.67;;
78197;SDS011;67472;51.554;7.812;2023-02-28T09:17:12;6.57;;;3.67;;
78197;SDS011;67472;51.554;7.812;2023-02-28T09:19:57;4.80;;;3.40;;
78197;SDS011;67472;51.554;7.812;2023-02-28T09:22:41;9.90;;;6.00;;
78197;SDS011;67472;51.554;7.812;2023-02-28T09:25:26;4.45;;;3.33;;
78197;SDS011;67472;51.554;7.812;2023-02-28T09:28:10;6.90;;;3.47;;
78197;SDS011;67472;51.554;7.812;2023-02-28T09:30:55;7.95;;;3.13;;
78197;SDS011;67472;51.554;7.812;2023-02-28T09:33:41;3.53;;;2.88;;
78197;SDS011;67472;51.554;7.812;2023-02-28T09:36:26;3.92;;;3.50;;
78197;SDS011;67472;51.554;7.812;2023-02-28T09:39:12;4.60;;;3.50;;
78197;SDS011;67472;51.554;7.812;2023-02-28T09:41:59;2.88;;;2.67;;
78197;SDS011;67472;51.554;7.812;2023-02-28T09:44:44;5.25;;;3.20;;
78197;SDS011;67472;51.554;7.812;2023-02-28T09:47:32;4.55;;;2.63;;
78197;SDS011;67472;51.554;7.812;2023-02-28T09:53:18;3.15;;;2.70;;
78197;SDS011;67472;51.554;7.812;2023-02-28T09:56:25;3.35;;;3.00;;
78197;SDS011;67472;51.554;7.812;2023-02-28T09:59:35;7.53;;;2.95;;
78197;SDS011;67472;51.554;7.812;2023-02-28T10:05:36;4.28;;;3.05;;
78197;SDS011;67472;51.554;7.812;2023-02-28T10:08:44;3.55;;;2.72;;
78197;SDS011;67472;51.554;7.812;2023-02-28T10:11:45;4.43;;;3.00;;
78197;SDS011;67472;51.554;7.812;2023-02-28T10:14:31;4.72;;;3.28;;
78197;SDS011;67472;51.554;7.812;2023-02-28T10:17:22;5.28;;;2.72;;
78197;SDS011;67472;51.554;7.812;2023-02-28T10:20:11;3.33;;;2.28;;
78197;SDS011;67472;51.554;7.812;2023-02-28T10:23:05;5.70;;;2.70;;
78197;SDS011;67472;51.554;7.812;2023-02-28T10:25:55;4.32;;;2.50;;
78197;SDS011;67472;51.554;7.812;2023-02-28T10:28:43;4.95;;;2.55;;
78197;SDS011;67472;51.554;7.812;2023-02-28T10:31:27;3.15;;;2.55;;
78197;SDS011;67472;51.554;7.812;2023-02-28T10:34:12;3.15;;;2.05;;
78197;SDS011;67472;51.554;7.812;2023-02-28T10:36:57;3.15;;;2.38;;
78197;SDS011;67472;51.554;7.812;2023-02-28T10:39:51;2.40;;;2.20;;
78197;SDS011;67472;51.554;7.812;2023-02-28T10:42:35;4.68;;;2.30;;
78197;SDS011;67472;51.554;7.812;2023-02-28T10:45:23;2.70;;;2.30;;
78197;SDS011;67472;51.554;7.812;2023-02-28T10:50:59;3.08;;;1.90;;
78197;SDS011;67472;51.554;7.812;2023-02-28T10:56:36;7.35;;;2.65;;
78197;SDS011;67472;51.554;7.812;2023-02-28T10:59:25;2.00;;;1.80;;
78197;SDS011;67472;51.554;7.812;2023-02-28T11:02:28;2.35;;;1.98;;
78197;SDS011;67472;51.554;7.812;2023-02-28T11:05:23;2.88;;;2.38;;
78197;SDS011;67472;51.554;7.812;2023-02-28T11:08:15;2.42;;;2.03;;
78197;SDS011;67472;51.554;7.812;2023-02-28T11:11:03;2.78;;;2.15;;
78197;SDS011;67472;51.554;7.812;2023-02-28T11:13:51;5.68;;;2.78;;
78197;SDS011;67472;51.554;7.812;2023-02-28T11:16:40;21.63;;;2.90;;
78197;SDS011;67472;51.554;7.812;2023-02-28T11:19:26;4.55;;;3.35;;
78197;SDS011;67472;51.554;7.812;2023-02-28T11:22:20;2.53;;;2.13;;
78197;SDS011;67472;51.554;7.812;2023-02-28T11:25:07;2.65;;;2.00;;
78197;SDS011;67472;51.554;7.812;2023-02-28T11:28:03;2.25;;;2.05;;
78197;SDS011;67472;51.554;7.812;2023-02-28T11:33:57;3.65;;;2.60;;
78197;SDS011;67472;51.554;7.812;2023-02-28T11:36:42;4.80;;;2.70;;
78197;SDS011;67472;51.554;7.812;2023-02-28T11:39:28;3.42;;;2.58;;
78197;SDS011;67472;51.554;7.812;2023-02-28T11:45:22;3.05;;;2.75;;
78197;SDS011;67472;51.554;7.812;2023-02-28T11:48:40;3.28;;;2.63;;
78197;SDS011;67472;51.554;7.812;2023-02-28T11:51:44;3.20;;;2.90;;
78197;SDS011;67472;51.554;7.812;2023-02-28T12:13:19;2.65;;;2.45;;
78197;SDS011;67472;51.554;7.812;2023-02-28T12:16:25;3.20;;;2.85;;
78197;SDS011;67472;51.554;7.812;2023-02-28T12:22:31;3.05;;;2.75;;
78197;SDS011;67472;51.554;7.812;2023-02-28T12:25:42;3.30;;;2.45;;
78197;SDS011;67472;51.554;7.812;2023-02-28T12:28:34;3.65;;;2.90;;
78197;SDS011;67472;51.554;7.812;2023-02-28T12:31:24;3.85;;;3.28;;
78197;SDS011;67472;51.554;7.812;2023-02-28T12:34:18;3.20;;;2.90;;
78197;SDS011;67472;51.554;7.812;2023-02-28T12:37:12;3.53;;;3.22;;
78197;SDS011;67472;51.554;7.812;2023-02-28T12:40:03;3.13;;;2.83;;
78197;SDS011;67472;51.554;7.812;2023-02-28T12:43:02;3.38;;;3.05;;
78197;SDS011;67472;51.554;7.812;2023-02-28T12:46:10;4.43;;;2.90;;
78197;SDS011;67472;51.554;7.812;2023-02-28T12:49:04;2.85;;;2.65;;
78197;SDS011;67472;51.554;7.812;2023-02-28T12:51:54;3.75;;;2.70;;
78197;SDS011;67472;51.554;7.812;2023-02-28T12:57:38;3.15;;;2.85;;
78197;SDS011;67472;51.554;7.812;2023-02-28T13:00:32;3.35;;;3.08;;
78197;SDS011;67472;51.554;7.812;2023-02-28T13:09:50;3.47;;;3.00;;
78197;SDS011;67472;51.554;7.812;2023-02-28T13:12:37;4.57;;;2.88;;
78197;SDS011;67472;51.554;7.812;2023-02-28T13:15:34;5.15;;;3.08;;
78197;SDS011;67472;51.554;7.812;2023-02-28T13:18:46;3.53;;;3.22;;
78197;SDS011;67472;51.554;7.812;2023-02-28T13:21:30;5.15;;;3.47;;
78197;SDS011;67472;51.554;7.812;2023-02-28T13:30:00;4.90;;;3.60;;
78197;SDS011;67472;51.554;7.812;2023-02-28T13:32:46;4.10;;;3.65;;
78197;SDS011;67472;51.554;7.812;2023-02-28T13:35:35;5.47;;;3.38;;
78197;SDS011;67472;51.554;7.812;2023-02-28T13:38:25;3.70;;;3.40;;
78197;SDS011;67472;51.554;7.812;2023-02-28T13:41:40;4.50;;;4.10;;
78197;SDS011;67472;51.554;7.812;2023-02-28T13:44:25;4.82;;;3.35;;
78197;SDS011;67472;51.554;7.812;2023-02-28T13:56:06;4.07;;;3.15;;
78197;SDS011;67472;51.554;7.812;2023-02-28T13:59:06;5.05;;;3.58;;
78197;SDS011;67472;51.554;7.812;2023-02-28T14:02:23;3.97;;;3.58;;
78197;SDS011;67472;51.554;7.812;2023-02-28T14:08:04;5.43;;;3.50;;
78197;SDS011;67472;51.554;7.812;2023-02-28T14:11:04;4.55;;;3.33;;
78197;SDS011;67472;51.554;7.812;2023-02-28T14:13:50;5.30;;;4.05;;
78197;SDS011;67472;51.554;7.812;2023-02-28T14:16:43;5.15;;;3.42;;
78197;SDS011;67472;51.554;7.812;2023-02-28T14:19:29;5.25;;;3.40;;
78197;SDS011;67472;51.554;7.812;2023-02-28T14:34:43;5.65;;;3.70;;
78197;SDS011;67472;51.554;7.812;2023-02-28T14:37:36;3.38;;;3.00;;
78197;SDS011;67472;51.554;7.812;2023-02-28T14:43:20;4.40;;;3.30;;
78197;SDS011;67472;51.554;7.812;2023-02-28T14:46:06;3.80;;;3.40;;
78197;SDS011;67472;51.554;7.812;2023-02-28T14:48:51;4.30;;;3.00;;
78197;SDS011;67472;51.554;7.812;2023-02-28T14:51:35;4.50;;;3.60;;
78197;SDS011;67472;51.554;7.812;2023-02-28T14:54:20;10.57;;;3.38;;
78197;SDS011;67472;51.554;7.812;2023-02-28T14:57:22;3.83;;;3.20;;
78197;SDS011;67472;51.554;7.812;2023-02-28T15:00:16;4.35;;;3.90;;
78197;SDS011;67472;51.554;7.812;2023-02-28T15:03:17;3.42;;;3.13;;
78197;SDS011;67472;51.554;7.812;2023-02-28T15:06:15;3.95;;;2.95;;
78197;SDS011;67472;51.554;7.812;2023-02-28T15:09:07;21.40;;;10.63;;
78197;SDS011;67472;51.554;7.812;2023-02-28T15:12:00;16.55;;;10.23;;
78197;SDS011;67472;51.554;7.812;2023-02-28T15:18:05;6.40;;;4.10;;
78197;SDS011;67472;51.554;7.812;2023-02-28T15:20:51;4.72;;;3.35;;
78197;SDS011;67472;51.554;7.812;2023-02-28T15:23:36;4.28;;;3.72;;
78197;SDS011;67472;51.554;7.812;2023-02-28T15:26:24;6.70;;;4.78;;
78197;SDS011;67472;51.554;7.812;2023-02-28T15:29:19;5.75;;;4.05;;
78197;SDS011;67472;51.554;7.812;2023-02-28T15:32:06;4.95;;;4.10;;
78197;SDS011;67472;51.554;7.812;2023-02-28T15:38:25;5.40;;;4.90;;
78197;SDS011;67472;51.554;7.812;2023-02-28T15:41:21;6.10;;;4.88;;
78197;SDS011;67472;51.554;7.812;2023-02-28T15:44:16;5.22;;;4.45;;
78197;SDS011;67472;51.554;7.812;2023-02-28T15:47:19;6.85;;;6.18;;
78197;SDS011;67472;51.554;7.812;2023-02-28T15:50:08;5.85;;;4.25;;
78197;SDS011;67472;51.554;7.812;2023-02-28T15:52:56;4.80;;;3.60;;
78197;SDS011;67472;51.554;7.812;2023-02-28T15:55:44;6.22;;;4.25;;
78197;SDS011;67472;51.554;7.812;2023-02-28T15:58:36;5.45;;;3.95;;
78197;SDS011;67472;51.554;7.812;2023-02-28T16:01:28;5.55;;;3.35;;
78197;SDS011;67472;51.554;7.812;2023-02-28T16:04:15;4.95;;;3.10;;
78197;SDS011;67472;51.554;7.812;2023-02-28T16:07:04;4.80;;;3.28;;
78197;SDS011;67472;51.554;7.812;2023-02-28T16:09:50;4.55;;;3.53;;
78197;SDS011;67472;51.554;7.812;2023-02-28T16:12:35;3.67;;;3.38;;
78197;SDS011;67472;51.554;7.812;2023-02-28T16:15:28;5.38;;;3.40;;
78197;SDS011;67472;51.554;7.812;2023-02-28T16:18:19;5.60;;;3.40;;
78197;SDS011;67472;51.554;7.812;2023-02-28T16:21:04;4.75;;;4.00;;
78197;SDS011;67472;51.554;7.812;2023-02-28T16:23:49;9.13;;;3.88;;
78197;SDS011;67472;51.554;7.812;2023-02-28T16:26:33;6.47;;;3.75;;
78197;SDS011;67472;51.554;7.812;2023-02-28T16:29:26;4.75;;;3.25;;
78197;SDS011;67472;51.554;7.812;2023-02-28T16:32:16;5.10;;;3.72;;
78197;SDS011;67472;51.554;7.812;2023-02-28T16:35:00;4.93;;;3.60;;
78197;SDS011;67472;51.554;7.812;2023-02-28T16:37:45;5.10;;;4.20;;
78197;SDS011;67472;51.554;7.812;2023-02-28T16:40:29;7.10;;;4.38;;
78197;SDS011;67472;51.554;7.812;2023-02-28T16:43:19;5.18;;;3.67;;
78197;SDS011;67472;51.554;7.812;2023-02-28T16:46:09;5.53;;;4.70;;
78197;SDS011;67472;51.554;7.812;2023-02-28T16:48:56;11.80;;;4.72;;
78197;SDS011;67472;51.554;7.812;2023-02-28T16:51:40;6.57;;;5.25;;
78197;SDS011;67472;51.554;7.812;2023-02-28T16:54:25;6.35;;;5.43;;
78197;SDS011;67472;51.554;7.812;2023-02-28T16:57:17;8.13;;;5.68;;
78197;SDS011;67472;51.554;7.812;2023-02-28T17:00:07;6.55;;;5.95;;
78197;SDS011;67472;51.554;7.812;2023-02-28T17:02:55;10.50;;;4.85;;
78197;SDS011;67472;51.554;7.812;2023-02-28T17:05:40;5.55;;;4.43;;
78197;SDS011;67472;51.554;7.812;2023-02-28T17:08:25;7.25;;;4.93;;
78197;SDS011;67472;51.554;7.812;2023-02-28T17:11:10;21.17;;;15.88;;
78197;SDS011;67472;51.554;7.812;2023-02-28T17:13:55;14.80;;;11.25;;
78197;SDS011;67472;51.554;7.812;2023-02-28T17:16:40;27.20;;;17.85;;
78197;SDS011;67472;51.554;7.812;2023-02-28T17:19:26;17.52;;;11.85;;
78197;SDS011;67472;51.554;7.812;2023-02-28T17:22:12;10.40;;;8.82;;
78197;SDS011;67472;51.554;7.812;2023-02-28T17:24:57;20.73;;;18.52;;
78197;SDS011;67472;51.554;7.812;2023-02-28T17:27:42;12.98;;;10.60;;
78197;SDS011;67472;51.554;7.812;2023-02-28T17:30:27;11.30;;;6.85;;
78197;SDS011;67472;51.554;7.812;2023-02-28T17:33:12;9.07;;;5.82;;
78197;SDS011;67472;51.554;7.812;2023-02-28T17:36:00;10.82;;;6.43;;
78197;SDS011;67472;51.554;7.812;2023-02-28T17:38:49;8.43;;;5.82;;
78197;SDS011;67472;51.554;7.812;2023-02-28T17:41:34;10.15;;;7.05;;
78197;SDS011;67472;51.554;7.812;2023-02-28T17:44:20;17.40;;;7.90;;
78197;SDS011;67472;51.554;7.812;2023-02-28T17:47:06;14.75;;;8.02;;
78197;SDS011;67472;51.554;7.812;2023-02-28T17:49:50;20.17;;;11.60;;
78197;SDS011;67472;51.554;7.812;2023-02-28T17:52:35;16.65;;;10.65;;
78197;SDS011;67472;51.554;7.812;2023-02-28T17:55:20;11.80;;;6.93;;
78197;SDS011;67472;51.554;7.812;2023-02-28T17:58:04;8.32;;;5.03;;
78197;SDS011;67472;51.554;7.812;2023-02-28T18:00:50;6.65;;;5.05;;
78197;SDS011;67472;51.554;7.812;2023-02-28T18:03:38;9.02;;;6.20;;
78197;SDS011;67472;51.554;7.812;2023-02-28T18:06:27;8.15;;;5.63;;
78197;SDS011;67472;51.554;7.812;2023-02-28T18:09:16;10.05;;;6.38;;
78197;SDS011;67472;51.554;7.812;2023-02-28T18:12:05;9.70;;;5.18;;
78197;SDS011;67472;51.554;7.812;2023-02-28T18:14:50;7.38;;;5.38;;
78197;SDS011;67472;51.554;7.812;2023-02-28T18:17:34;8.25;;;5.40;;
78197;SDS011;67472;51.554;7.812;2023-02-28T18:20:19;9.02;;;5.93;;
78197;SDS011;67472;51.554;7.812;2023-02-28T18:23:08;6.05;;;4.45;;
78197;SDS011;67472;51.554;7.812;2023-02-28T18:25:53;8.85;;;5.28;;
78197;SDS011;67472;51.554;7.812;2023-02-28T18:28:37;5.57;;;4.97;;
78197;SDS011;67472;51.554;7.812;2023-02-28T18:31:24;7.20;;;5.40;;
78197;SDS011;67472;51.554;7.812;2023-02-28T18:34:08;6.80;;;5.07;;
78197;SDS011;67472;51.554;7.812;2023-02-28T18:36:53;8.55;;;6.00;;
78197;SDS011;67472;51.554;7.812;2023-02-28T18:39:38;6.60;;;5.38;;
78197;SDS011;67472;51.554;7.812;2023-02-28T18:42:25;9.07;;;5.90;;
78197;SDS011;67472;51.554;7.812;2023-02-28T18:45:11;8.63;;;6.05;;
78197;SDS011;67472;51.554;7.812;2023-02-28T18:47:55;6.95;;;5.60;;
78197;SDS011;67472;51.554;7.812;2023-02-28T18:50:41;7.18;;;5.50;;
78197;SDS011;67472;51.554;7.812;2023-02-28T18:53:26;6.78;;;4.82;;
78197;SDS011;67472;51.554;7.812;2023-02-28T18:56:13;5.22;;;4.70;;
78197;SDS011;67472;51.554;7.812;2023-02-28T18:58:59;6.05;;;4.95;;
78197;SDS011;67472;51.554;7.812;2023-02-28T19:01:44;9.18;;;6.05;;